Time;durP1;ratioP1;P1;durP2;ratioP2;P2;SDS_P1;SDS_P2;PMS_P1;PMS_P2;Temp;Humidity;BMP_temperature;BMP_pressure;BME280_temperature;BME280_humidity;BME280_pressure;Samples;Min_cycle;Max_cycle;Signal;HPM_P1;HPM_P2
2022/11/09 00:00:18;;;;;;;32.90;27.57;;;;;;;8.91;72.17;95482.69;5037583;28;20621;-64
2022/11/09 00:02:44;;;;;;;31.40;28.10;;;;;;;9.05;71.86;95489.38;5034935;28;20194;-64
2022/11/09 00:05:11;;;;;;;31.40;28.13;;;;;;;8.99;71.76;95485.50;5031118;28;20242;-64
2022/11/09 00:07:37;;;;;;;32.67;29.23;;;;;;;8.89;71.74;95486.41;5032263;28;20209;-64
2022/11/09 00:10:02;;;;;;;30.50;26.73;;;;;;;8.79;72.14;95488.97;5039247;28;20189;-64
2022/11/09 00:12:28;;;;;;;30.67;27.33;;;;;;;8.84;72.12;95492.03;5035817;28;20718;-63
2022/11/09 00:14:53;;;;;;;30.27;27.07;;;;;;;8.93;71.87;95500.94;5032645;28;20607;-64
2022/11/09 00:17:19;;;;;;;32.30;27.13;;;;;;;8.92;71.96;95489.59;5033493;28;20187;-65
2022/11/09 00:19:44;;;;;;;32.93;29.37;;;;;;;8.90;71.72;95499.41;5030558;28;20557;-64
2022/11/09 00:22:11;;;;;;;30.00;26.80;;;;;;;9.03;71.51;95497.41;5034139;28;20189;-64
2022/11/09 00:24:36;;;;;;;32.03;27.90;;;;;;;9.06;70.96;95488.41;5036356;28;20209;-64
2022/11/09 00:27:02;;;;;;;29.47;25.97;;;;;;;8.89;71.32;95494.28;5029855;28;20189;-64
2022/11/09 00:29:27;;;;;;;30.13;26.33;;;;;;;8.88;71.79;95498.69;5035704;28;20185;-64
2022/11/09 00:31:53;;;;;;;28.63;25.63;;;;;;;9.05;71.45;95507.75;5038141;28;20177;-64
2022/11/09 00:34:18;;;;;;;31.30;27.57;;;;;;;8.95;71.14;95497.19;5034492;28;20276;-65
2022/11/09 00:36:44;;;;;;;32.43;27.23;;;;;;;9.00;71.01;95491.56;5033172;28;20208;-64
2022/11/09 00:39:09;;;;;;;30.27;27.03;;;;;;;8.99;70.89;95497.78;5034532;28;20177;-64
2022/11/09 00:41:34;;;;;;;29.93;26.80;;;;;;;9.05;70.67;95494.63;5032441;28;20216;-64
2022/11/09 00:44:00;;;;;;;31.23;27.17;;;;;;;8.98;70.64;95496.97;5034780;28;20197;-64
2022/11/09 00:46:26;;;;;;;29.83;26.13;;;;;;;9.01;70.59;95490.63;5035626;28;20218;-64
2022/11/09 00:48:54;;;;;;;28.67;25.63;;;;;;;8.84;71.70;95497.28;5037450;28;20185;-64
2022/11/09 00:51:21;;;;;;;30.87;27.57;;;;;;;8.89;72.35;95491.66;5038519;28;20189;-64
2022/11/09 00:53:47;;;;;;;28.93;25.77;;;;;;;8.83;72.14;95493.00;5032405;28;20268;-65
2022/11/09 00:56:12;;;;;;;30.10;26.90;;;;;;;9.02;71.80;95487.03;5042497;28;20319;-64
2022/11/09 00:58:39;;;;;;;30.23;26.97;;;;;;;9.02;71.58;95492.28;5039578;28;20268;-64
2022/11/09 01:01:14;;;;;;;30.10;26.00;;;;;;;8.87;72.00;95486.53;5037533;28;20193;-64
2022/11/09 01:03:39;;;;;;;30.43;27.23;;;;;;;8.90;72.10;95486.28;5039129;28;20204;-64
2022/11/09 01:06:06;;;;;;;28.90;25.80;;;;;;;9.03;71.41;95486.06;5031785;28;20237;-64
2022/11/09 01:08:35;;;;;;;28.70;25.70;;;;;;;8.87;71.99;95490.94;5032299;28;20189;-64
2022/11/09 01:11:09;;;;;;;28.73;25.63;;;;;;;8.67;72.17;95485.59;5032793;28;20189;-64
2022/11/09 01:13:35;;;;;;;29.63;26.50;;;;;;;8.65;72.65;95487.50;5026382;28;20231;-64
2022/11/09 01:16:05;;;;;;;30.53;25.70;;;;;;;8.72;73.09;95479.97;5031791;28;20182;-64
2022/11/09 01:18:30;;;;;;;29.13;25.93;;;;;;;8.68;73.22;95489.03;5043929;28;20190;-64
2022/11/09 01:20:56;;;;;;;28.07;25.20;;;;;;;8.73;72.83;95485.06;5042035;28;20182;-64
2022/11/09 01:23:21;;;;;;;31.23;27.87;;;;;;;8.71;72.79;95486.16;5027890;28;20728;-65
2022/11/09 01:25:47;;;;;;;30.67;27.33;;;;;;;8.59;73.08;95493.28;5030882;28;20186;-65
2022/11/09 01:28:12;;;;;;;32.10;26.97;;;;;;;8.74;73.47;95496.38;5049225;28;20932;-65
2022/11/09 01:30:41;;;;;;;29.73;26.53;;;;;;;8.64;73.12;95485.84;5032203;28;20190;-64
2022/11/09 01:33:09;;;;;;;31.00;27.87;;;;;;;8.65;73.29;95482.25;5032000;28;20182;-63
2022/11/09 01:35:36;;;;;;;31.13;27.10;;;;;;;8.76;73.67;95484.81;5032044;28;20276;-64
2022/11/09 01:38:03;;;;;;;34.93;29.03;;;;;;;8.87;73.68;95488.31;5031244;28;20209;-63
2022/11/09 01:40:30;;;;;;;32.27;28.87;;;;;;;8.82;73.97;95483.44;5031683;28;20225;-63
2022/11/09 01:42:56;;;;;;;31.97;28.37;;;;;;;8.93;73.63;95486.03;5029575;28;20214;-63
2022/11/09 01:45:27;;;;;;;33.43;28.60;;;;;;;8.93;73.43;95479.94;5031010;28;20287;-64
2022/11/09 01:47:58;;;;;;;32.80;28.93;;;;;;;9.11;73.01;95482.78;5031233;28;20217;-64
2022/11/09 01:50:49;;;;;;;30.50;27.37;;;;;;;9.07;73.29;95476.97;5031536;28;20189;-64
2022/11/09 01:53:22;;;;;;;32.17;27.57;;;;;;;9.27;73.12;95488.38;5031027;28;20205;-63
2022/11/09 01:55:51;;;;;;;30.80;26.77;;;;;;;9.24;73.09;95481.59;5031005;28;20190;-64
2022/11/09 01:58:22;;;;;;;31.13;26.97;;;;;;;9.18;72.88;95469.00;5030951;28;20198;-64
2022/11/09 02:00:49;;;;;;;28.53;25.63;;;;;;;9.23;72.28;95471.25;5031612;28;20280;-64
2022/11/09 02:03:21;;;;;;;30.40;27.23;;;;;;;9.22;72.69;95475.66;5028282;28;20565;-64
2022/11/09 02:05:48;;;;;;;29.47;26.03;;;;;;;9.19;73.18;95481.16;5031355;28;20312;-64
2022/11/09 02:08:16;;;;;;;30.53;26.60;;;;;;;9.16;73.28;95478.78;5031604;28;20190;-64
2022/11/09 02:11:02;;;;;;;30.40;26.43;;;;;;;9.22;73.66;95483.53;5022278;28;20206;-64
2022/11/09 02:13:29;;;;;;;29.30;26.10;;;;;;;9.26;73.51;95482.28;5026802;28;20221;-64
2022/11/09 02:15:55;;;;;;;29.90;26.37;;;;;;;9.38;73.27;95482.19;5031622;28;20209;-64
2022/11/09 02:18:21;;;;;;;29.00;25.87;;;;;;;9.47;72.96;95478.78;5031678;28;20190;-65
2022/11/09 02:20:52;;;;;;;29.83;26.73;;;;;;;9.44;72.85;95479.06;5030298;28;20224;-64
2022/11/09 02:23:18;;;;;;;30.00;26.80;;;;;;;9.42;72.92;95483.59;5030947;28;20571;-64
2022/11/09 02:26:20;;;;;;;29.80;26.90;;;;;;;9.67;72.86;95480.47;5031218;28;20198;-64
2022/11/09 02:28:45;;;;;;;30.03;26.57;;;;;;;9.58;73.00;95486.56;4993678;28;20206;-64
2022/11/09 02:31:14;;;;;;;33.27;27.07;;;;;;;9.57;72.92;95484.91;4993742;28;20499;-69
2022/11/09 02:33:54;;;;;;;30.80;27.70;;;;;;;9.52;73.37;95491.53;4994237;28;20202;-65
2022/11/09 02:36:21;;;;;;;29.13;26.03;;;;;;;9.45;73.55;95491.22;4994267;28;20213;-64
2022/11/09 02:38:47;;;;;;;29.57;26.50;;;;;;;9.44;73.58;95493.00;5010140;28;20645;-64
2022/11/09 02:41:13;;;;;;;31.53;26.77;;;;;;;9.40;73.57;95485.53;4992478;28;20214;-65
2022/11/09 02:43:39;;;;;;;28.57;25.43;;;;;;;9.39;73.44;95482.06;4993396;28;20219;-64
2022/11/09 02:46:05;;;;;;;30.80;27.33;;;;;;;9.28;74.30;95480.38;4993231;28;20667;-65
2022/11/09 02:48:30;;;;;;;31.33;27.93;;;;;;;9.25;74.11;95483.28;4993825;28;20191;-65
2022/11/09 02:50:55;;;;;;;28.87;25.87;;;;;;;9.08;74.73;95489.13;4993208;28;20644;-64
2022/11/09 02:53:21;;;;;;;30.23;26.93;;;;;;;9.13;74.73;95492.19;4993033;28;20193;-64
2022/11/09 02:55:46;;;;;;;29.80;26.60;;;;;;;9.12;74.43;95490.53;4994539;28;20187;-64
2022/11/09 02:58:12;;;;;;;32.20;28.70;;;;;;;9.27;74.80;95494.47;4993472;28;20203;-64
2022/11/09 03:00:37;;;;;;;30.00;26.77;;;;;;;9.07;74.72;95486.66;4990593;28;20222;-64
2022/11/09 03:03:03;;;;;;;31.13;27.93;;;;;;;9.06;74.97;95493.66;4992638;28;20738;-64
2022/11/09 03:05:28;;;;;;;48.77;43.90;;;;;;;8.98;75.59;95494.34;5029360;28;20222;-64
2022/11/09 03:07:55;;;;;;;44.00;39.50;;;;;;;9.10;75.19;95495.06;5029882;28;20552;-65
2022/11/09 03:10:20;;;;;;;62.57;56.57;;;;;;;9.19;75.10;95501.31;5030568;28;20194;-65
2022/11/09 03:12:46;;;;;;;59.27;53.20;;;;;;;9.05;75.23;95492.00;5030533;28;20202;-65
2022/11/09 03:15:11;;;;;;;58.37;52.37;;;;;;;9.03;75.44;95493.91;5030322;28;20197;-65
2022/11/09 03:17:37;;;;;;;54.30;48.90;;;;;;;9.02;75.40;95494.91;5031268;28;20255;-64
2022/11/09 03:20:03;;;;;;;47.37;42.50;;;;;;;8.97;75.74;95497.06;5030117;28;20197;-65
2022/11/09 03:22:28;;;;;;;40.23;36.07;;;;;;;8.93;76.21;95495.69;5029443;28;20253;-64
2022/11/09 03:24:54;;;;;;;35.37;31.27;;;;;;;8.89;76.22;95495.09;5031577;28;20206;-65
2022/11/09 03:27:19;;;;;;;35.67;32.07;;;;;;;8.95;76.25;95493.75;5027920;28;20285;-65
2022/11/09 03:29:44;;;;;;;36.50;30.37;;;;;;;8.88;76.13;95493.44;5030891;28;20202;-64
2022/11/09 03:32:10;;;;;;;32.93;29.20;;;;;;;8.80;76.40;95496.72;5029945;28;20316;-66
2022/11/09 03:34:35;;;;;;;33.40;29.83;;;;;;;8.80;76.55;95486.22;5029002;28;20186;-67
2022/11/09 03:37:01;;;;;;;31.97;27.83;;;;;;;8.78;76.35;95488.13;5030262;28;20190;-66
2022/11/09 03:39:26;;;;;;;31.93;28.43;;;;;;;8.77;76.60;95496.97;5045752;28;20285;-66
2022/11/09 03:41:52;;;;;;;30.60;27.30;;;;;;;8.76;76.23;95499.72;5046105;28;20186;-64
2022/11/09 03:44:18;;;;;;;33.93;28.37;;;;;;;8.80;75.91;95496.72;5029299;28;20225;-66
2022/11/09 03:46:44;;;;;;;33.50;30.00;;;;;;;8.76;75.59;95499.72;5028859;28;20279;-67
2022/11/09 03:49:09;;;;;;;35.33;30.67;;;;;;;8.72;75.75;95498.31;5029999;28;20226;-67
2022/11/09 03:51:35;;;;;;;37.63;33.53;;;;;;;8.75;75.11;95504.13;5029456;28;20190;-66
2022/11/09 03:54:00;;;;;;;36.63;33.03;;;;;;;8.66;74.72;95510.16;5046067;28;20193;-66
2022/11/09 03:56:26;;;;;;;36.60;32.77;;;;;;;8.63;75.05;95504.31;5029341;28;20657;-69
2022/11/09 03:58:51;;;;;;;35.53;31.83;;;;;;;8.52;74.42;95497.34;5029307;28;20197;-69
2022/11/09 04:01:16;;;;;;;34.43;30.73;;;;;;;8.47;74.74;95504.75;5029112;28;20190;-66
2022/11/09 04:03:42;;;;;;;32.93;29.47;;;;;;;8.49;74.37;95503.66;5029406;28;20277;-68
2022/11/09 04:06:07;;;;;;;32.03;28.73;;;;;;;8.41;74.61;95506.09;5041018;28;20233;-68
2022/11/09 04:08:33;;;;;;;31.43;28.20;;;;;;;8.41;74.08;95506.09;5009779;28;20194;-66
2022/11/09 04:10:58;;;;;;;32.80;29.27;;;;;;;8.38;73.99;95503.69;5008116;28;20195;-66
2022/11/09 04:13:23;;;;;;;32.13;28.70;;;;;;;8.16;74.48;95507.25;5009405;28;20187;-66
2022/11/09 04:15:49;;;;;;;33.40;27.20;;;;;;;8.10;75.00;95508.59;5037039;28;20191;-66
2022/11/09 04:18:16;;;;;;;31.33;27.13;;;;;;;8.16;74.56;95502.00;5009446;28;21065;-66
2022/11/09 04:20:41;;;;;;;29.70;26.63;;;;;;;8.14;74.10;95499.50;5008724;28;20191;-66
2022/11/09 04:23:09;;;;;;;29.63;25.60;;;;;;;8.17;74.07;95501.03;5007582;28;20201;-66
2022/11/09 04:25:37;;;;;;;30.60;26.17;;;;;;;8.14;74.04;95507.38;5006042;28;20203;-66
2022/11/09 04:28:04;;;;;;;29.47;25.63;;;;;;;8.08;74.06;95502.63;5009052;28;20191;-66
2022/11/09 04:30:31;;;;;;;31.00;27.70;;;;;;;8.15;73.85;95501.19;5006651;28;20265;-66
2022/11/09 04:32:58;;;;;;;94.47;84.67;;;;;;;8.21;74.04;95504.28;5008723;28;20244;-67
2022/11/09 04:35:24;;;;;;;76.63;66.53;;;;;;;8.21;74.06;95494.63;5007169;28;20221;-67
2022/11/09 04:37:59;;;;;;;38.13;32.13;;;;;;;8.16;73.83;95502.00;5009098;28;20217;-66
2022/11/09 04:40:26;;;;;;;42.27;37.60;;;;;;;8.03;73.70;95496.94;5009601;28;20248;-67
2022/11/09 04:42:52;;;;;;;39.20;34.97;;;;;;;8.03;73.70;95502.16;5007171;28;20265;-67
2022/11/09 04:45:18;;;;;;;35.63;31.83;;;;;;;7.94;73.34;95502.94;5042037;28;20684;-67
2022/11/09 04:47:44;;;;;;;34.83;30.73;;;;;;;7.86;73.75;95511.41;5010045;28;20214;-66
2022/11/09 04:50:09;;;;;;;34.83;30.20;;;;;;;7.91;73.66;95508.38;5008436;28;20194;-67
2022/11/09 04:52:35;;;;;;;30.63;27.47;;;;;;;7.74;73.90;95514.97;5008814;28;20202;-66
2022/11/09 04:55:00;;;;;;;31.43;27.93;;;;;;;7.78;74.13;95511.19;5006904;28;20187;-67
2022/11/09 04:57:26;;;;;;;30.07;26.87;;;;;;;7.86;73.58;95511.41;5006403;28;20285;-66
2022/11/09 04:59:51;;;;;;;30.83;26.03;;;;;;;7.85;73.34;95519.38;5009045;28;20199;-66
2022/11/09 05:02:17;;;;;;;29.07;25.87;;;;;;;7.85;73.45;95517.56;5008867;28;20286;-67
2022/11/09 05:04:42;;;;;;;29.23;25.53;;;;;;;7.84;73.37;95512.47;5013469;28;20689;-67
2022/11/09 05:07:08;;;;;;;29.00;26.00;;;;;;;7.80;73.71;95524.97;5032444;28;20193;-67
2022/11/09 05:09:33;;;;;;;32.30;26.40;;;;;;;7.83;73.44;95521.25;5033978;28;20193;-67
2022/11/09 05:11:59;;;;;;;29.90;26.73;;;;;;;8.02;72.92;95518.00;5031349;28;20197;-65
2022/11/09 05:14:24;;;;;;;29.50;25.83;;;;;;;7.84;73.03;95529.00;5034046;28;20545;-67
2022/11/09 05:16:49;;;;;;;32.30;26.37;;;;;;;7.88;73.42;95519.13;5032631;28;20534;-66
2022/11/09 05:19:16;;;;;;;28.30;25.23;;;;;;;7.91;73.06;95527.56;5037441;28;20197;-66
2022/11/09 05:21:41;;;;;;;34.20;29.03;;;;;;;7.86;73.44;95531.53;5039745;28;20221;-66
2022/11/09 05:24:07;;;;;;;41.63;31.13;;;;;;;7.83;73.23;95524.75;5035994;28;20292;-68
2022/11/09 05:26:36;;;;;;;35.77;29.47;;;;;;;7.80;73.66;95524.97;5034335;28;20192;-67
2022/11/09 05:29:04;;;;;;;35.17;29.63;;;;;;;7.93;73.42;95538.72;5032790;28;20200;-65
2022/11/09 05:31:30;;;;;;;40.13;30.77;;;;;;;7.95;72.89;95536.00;5033439;28;20185;-64
2022/11/09 05:34:21;;;;;;;33.10;29.43;;;;;;;7.83;73.70;95548.31;5035911;28;20192;-65
2022/11/09 05:36:47;;;;;;;34.13;28.87;;;;;;;7.81;74.01;95539.72;5037657;28;20193;-65
2022/11/09 05:39:12;;;;;;;38.27;29.27;;;;;;;7.93;73.71;95536.13;5035675;28;20193;-64
2022/11/09 05:41:37;;;;;;;43.20;30.77;;;;;;;7.96;73.32;95540.28;5037300;28;20322;-65
2022/11/09 05:44:03;;;;;;;39.17;30.43;;;;;;;8.01;73.17;95550.41;5035891;28;20220;-64
2022/11/09 05:46:30;;;;;;;34.60;28.93;;;;;;;7.88;73.82;95546.13;5037374;28;20304;-65
2022/11/09 05:48:55;;;;;;;39.00;33.63;;;;;;;7.93;73.65;95546.59;5037123;28;20189;-67
2022/11/09 05:51:21;;;;;;;39.23;30.67;;;;;;;7.99;73.61;95544.44;5034912;28;20193;-65
2022/11/09 05:53:47;;;;;;;39.20;30.97;;;;;;;7.92;73.76;95550.19;5039034;28;20181;-65
2022/11/09 05:56:13;;;;;;;39.07;30.90;;;;;;;8.04;73.58;95555.38;5036391;28;20201;-65
2022/11/09 05:58:40;;;;;;;32.97;29.30;;;;;;;8.05;73.49;95551.81;5040171;28;20821;-64
2022/11/09 06:01:07;;;;;;;33.57;29.33;;;;;;;8.10;73.56;95554.88;5033047;28;20272;-64
2022/11/09 06:03:33;;;;;;;34.17;29.50;;;;;;;8.15;73.24;95566.69;5032564;28;20213;-65
2022/11/09 06:06:06;;;;;;;36.70;28.73;;;;;;;8.19;73.31;95572.50;5013403;28;20509;-64
2022/11/09 06:08:32;;;;;;;34.83;28.17;;;;;;;8.29;73.16;95565.56;5024876;28;20194;-65
2022/11/09 06:11:00;;;;;;;42.13;31.83;;;;;;;8.46;73.12;95563.38;5028667;28;20240;-65
2022/11/09 06:13:27;;;;;;;40.20;30.00;;;;;;;8.59;72.87;95567.50;5029903;28;20680;-62
2022/11/09 06:15:57;;;;;;;36.10;30.20;;;;;;;8.77;72.45;95573.00;5028067;28;20337;-64
2022/11/09 06:18:25;;;;;;;41.43;28.63;;;;;;;8.75;72.74;95567.06;5030936;28;20197;-63
2022/11/09 06:20:55;;;;;;;31.87;28.37;;;;;;;8.99;72.35;95579.09;5030587;28;20202;-65
2022/11/09 06:23:24;;;;;;;37.23;30.13;;;;;;;9.11;72.20;95571.97;5043739;28;20272;-65
2022/11/09 06:26:01;;;;;;;36.87;31.93;;;;;;;9.19;72.41;95575.59;5030387;28;20228;-64
2022/11/09 06:28:27;;;;;;;46.50;36.20;;;;;;;9.29;72.46;95570.44;5030275;28;20229;-64
2022/11/09 06:30:56;;;;;;;72.13;49.07;;;;;;;9.52;71.92;95573.72;5031233;28;20182;-64
2022/11/09 06:33:21;;;;;;;35.30;31.00;;;;;;;9.60;71.48;95573.91;5030381;28;20295;-63
2022/11/09 06:35:47;;;;;;;39.27;30.30;;;;;;;9.71;71.43;95579.03;5027060;28;20269;-64
2022/11/09 06:38:13;;;;;;;37.80;29.63;;;;;;;9.74;71.17;95572.69;5012895;28;20244;-64
2022/11/09 06:40:38;;;;;;;35.97;29.77;;;;;;;9.75;71.65;95570.91;5030745;28;20186;-63
2022/11/09 06:43:04;;;;;;;32.83;27.83;;;;;;;9.77;71.82;95568.97;5029592;28;20186;-64
2022/11/09 06:45:30;;;;;;;34.00;29.50;;;;;;;9.79;71.75;95575.75;5028454;28;20209;-63
2022/11/09 06:48:00;;;;;;;33.43;27.43;;;;;;;9.79;71.82;95574.94;5030935;28;20182;-64
2022/11/09 06:50:27;;;;;;;30.87;27.50;;;;;;;9.84;71.54;95567.50;5047206;28;20190;-64
2022/11/09 06:53:02;;;;;;;29.70;26.57;;;;;;;9.83;71.80;95576.31;5029095;28;20269;-65
2022/11/09 06:55:29;;;;;;;33.43;27.80;;;;;;;9.81;71.74;95571.22;5030816;28;20181;-63
2022/11/09 06:57:55;;;;;;;31.83;28.63;;;;;;;9.87;71.77;95575.09;5027741;28;20637;-63
2022/11/09 07:00:22;;;;;;;30.73;27.43;;;;;;;9.85;71.99;95572.59;5029129;28;20182;-62
2022/11/09 07:02:47;;;;;;;31.90;28.50;;;;;;;9.87;71.80;95575.91;5046191;28;20177;-62
2022/11/09 07:05:13;;;;;;;32.80;29.23;;;;;;;9.89;71.84;95570.53;5032854;28;20240;-65
2022/11/09 07:07:38;;;;;;;31.90;28.43;;;;;;;9.96;71.59;95574.28;5034095;28;20750;-63
2022/11/09 07:10:04;;;;;;;33.73;30.03;;;;;;;10.12;71.23;95579.03;5036239;28;20185;-64
2022/11/09 07:12:31;;;;;;;33.87;30.23;;;;;;;10.15;70.84;95574.31;5035860;28;20221;-63
2022/11/09 07:14:56;;;;;;;32.77;29.37;;;;;;;10.24;70.82;95575.31;5035309;28;20197;-62
2022/11/09 07:17:22;;;;;;;32.57;28.53;;;;;;;10.20;70.67;95571.28;5037940;28;20196;-64
2022/11/09 07:19:48;;;;;;;32.90;29.50;;;;;;;10.28;70.17;95574.09;5033417;28;20192;-62
2022/11/09 07:22:14;;;;;;;33.13;29.67;;;;;;;10.30;70.30;95569.53;5034512;28;20185;-63
2022/11/09 07:24:39;;;;;;;32.17;28.67;;;;;;;10.36;70.34;95562.91;5034434;28;20611;-64
2022/11/09 07:27:04;;;;;;;33.63;29.33;;;;;;;10.47;69.98;95557.50;5034829;28;20552;-64
2022/11/09 07:29:30;;;;;;;34.27;29.13;;;;;;;10.59;69.80;95564.31;5034396;28;20618;-64
2022/11/09 07:31:55;;;;;;;35.23;29.53;;;;;;;10.62;69.73;95559.75;5034767;28;20254;-63
2022/11/09 07:34:21;;;;;;;33.80;29.90;;;;;;;10.63;69.64;95566.66;5031893;28;20185;-64
2022/11/09 07:36:46;;;;;;;33.07;29.60;;;;;;;10.69;69.58;95566.09;5032039;28;20193;-63
2022/11/09 07:39:11;;;;;;;32.70;29.30;;;;;;;10.75;69.89;95568.19;5034515;28;20186;-63
2022/11/09 07:41:37;;;;;;;34.23;30.63;;;;;;;10.79;69.49;95557.22;5034191;28;20247;-62
2022/11/09 07:44:03;;;;;;;33.30;29.70;;;;;;;10.82;69.39;95561.38;5027007;28;20309;-64
2022/11/09 07:46:28;;;;;;;37.73;31.17;;;;;;;10.95;69.01;95558.47;5032371;28;20191;-64
2022/11/09 07:48:53;;;;;;;34.30;30.07;;;;;;;11.03;68.75;95563.84;5028746;28;20197;-64
2022/11/09 07:51:19;;;;;;;35.03;29.97;;;;;;;11.17;68.25;95560.78;5034673;28;20584;-64
2022/11/09 07:53:44;;;;;;;35.67;30.93;;;;;;;11.12;68.05;95559.53;5034191;28;20713;-64
2022/11/09 07:56:10;;;;;;;37.07;32.23;;;;;;;11.16;68.44;95566.19;5033909;28;20660;-63
2022/11/09 07:58:35;;;;;;;34.03;30.40;;;;;;;11.29;67.71;95564.09;5026064;28;20186;-63
2022/11/09 08:01:06;;;;;;;34.63;30.80;;;;;;;11.28;68.04;95562.44;5031512;28;21025;-62
2022/11/09 08:03:31;;;;;;;35.08;30.80;;;;;;;11.33;67.78;95559.34;5031652;28;20245;-63
2022/11/09 08:05:57;;;;;;;34.60;30.60;;;;;;;11.48;67.56;95564.00;5029069;28;20272;-63
2022/11/09 08:08:22;;;;;;;33.37;29.77;;;;;;;11.44;67.80;95565.28;5031050;28;20193;-63
2022/11/09 08:10:51;;;;;;;37.13;30.20;;;;;;;11.60;67.19;95566.47;5033437;28;20186;-63
2022/11/09 08:13:17;;;;;;;35.33;30.77;;;;;;;11.58;67.17;95569.25;5049186;28;20273;-64
2022/11/09 08:15:43;;;;;;;33.85;30.30;;;;;;;11.64;66.96;95563.41;5027489;28;20185;-64
2022/11/09 08:18:19;;;;;;;35.22;31.42;;;;;;;11.79;66.75;95571.69;5033861;28;20716;-63
2022/11/09 08:20:45;;;;;;;35.83;32.10;;;;;;;11.90;65.99;95571.50;5027872;28;20276;-63
2022/11/09 08:23:12;;;;;;;37.90;33.40;;;;;;;11.89;66.22;95569.88;5032645;28;20961;-64
2022/11/09 08:25:38;;;;;;;39.67;33.17;;;;;;;11.99;65.94;95563.69;5030250;28;20191;-64
2022/11/09 08:28:03;;;;;;;38.07;33.20;;;;;;;11.96;66.00;95559.56;5034127;28;20275;-64
2022/11/09 08:30:30;;;;;;;39.00;33.17;;;;;;;12.04;65.18;95559.63;5017627;28;20189;-64
2022/11/09 08:32:57;;;;;;;36.83;33.03;;;;;;;12.16;65.04;95560.25;5033971;28;20280;-63
2022/11/09 08:35:23;;;;;;;35.88;32.08;;;;;;;12.35;64.36;95568.06;5031947;28;20926;-64
2022/11/09 08:37:50;;;;;;;37.07;32.27;;;;;;;12.53;63.92;95551.41;5034249;28;20633;-63
2022/11/09 08:40:20;;;;;;;36.10;32.17;;;;;;;12.50;63.96;95564.91;5033868;28;20193;-64
2022/11/09 08:42:45;;;;;;;36.30;32.25;;;;;;;12.55;63.52;95560.84;5034135;28;20201;-63
2022/11/09 08:45:11;;;;;;;40.30;33.75;;;;;;;12.54;63.39;95558.34;5033376;28;20217;-63
2022/11/09 08:47:37;;;;;;;37.45;32.42;;;;;;;12.79;62.88;95565.50;5036357;28;20189;-64
2022/11/09 08:50:04;;;;;;;37.28;33.38;;;;;;;12.79;62.54;95557.59;5033670;28;20185;-64
2022/11/09 08:52:30;;;;;;;39.67;33.15;;;;;;;12.89;62.38;95556.69;5033546;28;20185;-64
2022/11/09 08:54:55;;;;;;;38.53;34.40;;;;;;;12.89;62.30;95556.69;5033785;28;20461;-64
2022/11/09 08:57:21;;;;;;;36.90;32.63;;;;;;;13.07;61.43;95562.78;5047420;28;20323;-63
2022/11/09 08:59:46;;;;;;;37.83;33.70;;;;;;;12.99;61.69;95554.75;5033848;28;20196;-63
2022/11/09 09:02:13;;;;;;;38.78;34.00;;;;;;;13.22;61.37;95555.09;5033385;28;20223;-63
2022/11/09 09:04:39;;;;;;;39.33;34.72;;;;;;;13.32;60.66;95553.22;5033757;28;20204;-63
2022/11/09 09:07:05;;;;;;;39.47;35.20;;;;;;;13.24;61.30;95555.78;5025932;28;20317;-63
2022/11/09 09:09:31;;;;;;;37.17;32.88;;;;;;;13.34;60.39;95556.56;5033452;28;20268;-63
2022/11/09 09:11:56;;;;;;;35.87;31.97;;;;;;;13.37;60.07;95558.06;5031953;28;20202;-63
2022/11/09 09:14:22;;;;;;;38.10;34.20;;;;;;;13.37;60.26;95558.06;5034527;28;20614;-62
2022/11/09 09:16:48;;;;;;;37.65;33.60;;;;;;;13.42;60.67;95550.50;5032481;28;20281;-62
2022/11/09 09:19:13;;;;;;;36.83;32.70;;;;;;;13.61;60.14;95542.34;5031927;28;20269;-63
2022/11/09 09:21:39;;;;;;;38.28;34.33;;;;;;;13.78;59.25;95555.63;5033795;28;20194;-62
2022/11/09 09:24:05;;;;;;;40.00;32.90;;;;;;;13.83;58.61;95551.50;5047185;28;20229;-62
2022/11/09 09:26:30;;;;;;;39.60;33.70;;;;;;;13.88;58.00;95545.75;5037482;28;20283;-63
2022/11/09 09:28:56;;;;;;;36.50;31.35;;;;;;;13.86;58.10;95550.38;5033334;28;20194;-62
2022/11/09 09:31:21;;;;;;;36.88;32.75;;;;;;;13.94;58.07;95539.81;5033677;28;20190;-63
2022/11/09 09:33:46;;;;;;;36.55;32.47;;;;;;;14.05;57.91;95542.16;5034149;28;20190;-62
2022/11/09 09:36:18;;;;;;;38.08;33.55;;;;;;;14.21;57.71;95548.50;5026730;28;20280;-63
2022/11/09 09:38:43;;;;;;;36.65;32.75;;;;;;;14.21;57.50;95541.41;5033398;28;20209;-63
2022/11/09 09:41:22;;;;;;;38.00;33.95;;;;;;;14.18;57.62;95546.19;5050284;28;20538;-63
2022/11/09 09:43:51;;;;;;;37.83;33.72;;;;;;;14.39;57.26;95538.63;5033575;28;20222;-62
2022/11/09 09:46:39;;;;;;;38.90;34.83;;;;;;;14.52;56.55;95528.44;5032396;28;20558;-64
2022/11/09 09:49:11;;;;;;;37.33;33.45;;;;;;;14.67;56.21;95533.06;5033097;28;20182;-64
2022/11/09 09:52:06;;;;;;;37.22;33.22;;;;;;;14.66;56.18;95529.59;5029809;28;20178;-63
2022/11/09 09:54:42;;;;;;;37.03;33.08;;;;;;;14.92;55.21;95521.50;5020054;28;20178;-63
2022/11/09 09:57:17;;;;;;;36.10;32.28;;;;;;;14.97;54.76;95521.84;5046100;28;20379;-63
2022/11/09 09:59:48;;;;;;;38.13;31.83;;;;;;;15.12;54.07;95518.50;5024714;28;20194;-63
2022/11/09 10:02:21;;;;;;;36.47;32.40;;;;;;;15.27;53.46;95516.00;5030857;28;20637;-64
2022/11/09 10:04:47;;;;;;;34.58;31.08;;;;;;;15.24;53.10;95511.88;5026941;28;20209;-63
2022/11/09 10:07:31;;;;;;;32.20;28.48;;;;;;;15.48;53.04;95513.66;5046520;28;20232;-63
2022/11/09 10:10:34;;;;;;;31.27;27.92;;;;;;;15.63;52.03;95516.41;5032913;28;20197;-63
2022/11/09 10:13:18;;;;;;;32.35;28.92;;;;;;;15.76;51.72;95511.41;5051132;28;20319;-63
2022/11/09 10:15:46;;;;;;;37.30;30.08;;;;;;;15.87;51.43;95508.38;5032072;28;20266;-62
2022/11/09 10:18:18;;;;;;;32.67;29.35;;;;;;;15.90;51.08;95511.69;5050167;28;20269;-62
2022/11/09 10:21:07;;;;;;;30.88;27.65;;;;;;;15.94;50.37;95513.84;5045946;28;20185;-63
2022/11/09 10:23:44;;;;;;;30.65;27.63;;;;;;;16.00;50.06;95505.19;5045980;28;20210;-63
2022/11/09 10:26:17;;;;;;;30.13;27.05;;;;;;;16.03;49.72;95504.84;5040656;28;20246;-63
2022/11/09 10:28:48;;;;;;;27.98;25.08;;;;;;;16.40;48.61;95489.22;5049449;28;20659;-61
2022/11/09 10:31:17;;;;;;;29.45;26.33;;;;;;;16.45;48.61;95494.81;5050018;28;20232;-63
2022/11/09 10:33:56;;;;;;;25.35;22.85;;;;;;;16.73;47.81;95500.41;5051279;28;20228;-63
2022/11/09 10:36:29;;;;;;;23.77;21.42;;;;;;;16.71;47.05;95489.16;5034950;28;20216;-63
2022/11/09 10:38:59;;;;;;;22.77;20.58;;;;;;;16.85;46.72;95490.25;5035073;28;20211;-64
2022/11/09 10:41:37;;;;;;;22.45;20.15;;;;;;;16.81;46.69;95492.41;5035242;28;20686;-64
2022/11/09 10:44:03;;;;;;;23.08;20.90;;;;;;;16.99;46.85;95489.44;5024148;28;20316;-64
2022/11/09 10:46:28;;;;;;;23.83;21.38;;;;;;;16.91;46.46;95479.72;5030570;28;20696;-64
2022/11/09 10:48:54;;;;;;;21.73;19.65;;;;;;;17.23;45.55;95475.09;5033739;28;20267;-64
2022/11/09 10:51:42;;;;;;;21.90;19.67;;;;;;;17.10;45.64;95475.72;5035121;28;20185;-64
2022/11/09 10:54:23;;;;;;;20.85;18.83;;;;;;;17.19;45.13;95482.63;5034868;28;20182;-64
2022/11/09 10:56:57;;;;;;;20.88;18.90;;;;;;;16.56;46.01;95469.69;5033376;28;20280;-64
2022/11/09 10:59:47;;;;;;;21.67;19.50;;;;;;;16.88;45.65;95469.44;5035238;28;20181;-64
2022/11/09 11:02:25;;;;;;;22.08;19.90;;;;;;;17.15;45.08;95460.06;5033635;28;20660;-63
2022/11/09 11:05:16;;;;;;;20.83;18.42;;;;;;;17.30;44.39;95465.41;5050972;28;20212;-63
2022/11/09 11:07:43;;;;;;;18.10;16.35;;;;;;;17.60;43.40;95458.25;4977435;28;20206;-63
2022/11/09 11:10:14;;;;;;;14.40;13.05;;;;;;;17.67;42.22;95462.81;4974568;28;20203;-63
2022/11/09 11:12:45;;;;;;;16.50;14.90;;;;;;;17.55;42.68;95457.97;4989853;28;20659;-63
2022/11/09 11:15:22;;;;;;;18.33;16.42;;;;;;;18.01;42.05;95459.59;4975304;28;20726;-63
2022/11/09 11:17:48;;;;;;;20.15;18.15;;;;;;;18.03;41.90;95447.75;4973781;28;20215;-63
2022/11/09 11:20:24;;;;;;;21.05;19.10;;;;;;;18.17;42.21;95448.72;4974796;28;20187;-63
2022/11/09 11:22:49;;;;;;;21.42;19.23;;;;;;;18.13;42.95;95446.66;4989595;28;20210;-63
2022/11/09 11:25:20;;;;;;;23.95;21.38;;;;;;;18.64;41.69;95443.88;4974634;28;20252;-65